createdAt,value
2019-04-16T00:02:12.805Z,28.30
2019-04-16T00:04:46.704Z,28.40
2019-04-16T00:07:20.398Z,28.40
2019-04-16T00:09:54.415Z,28.30
2019-04-16T00:12:28.428Z,28.20
2019-04-16T00:15:02.245Z,28.20
2019-04-16T00:17:34.807Z,28.30
2019-04-16T00:20:08.592Z,28.30
2019-04-16T00:22:42.525Z,28.30
2019-04-16T00:25:15.357Z,28.30
2019-04-16T00:27:47.935Z,28.40
2019-04-16T00:30:21.735Z,28.30
2019-04-16T00:32:54.168Z,28.40
2019-04-16T00:35:27.078Z,28.60
2019-04-16T00:37:59.781Z,28.80
2019-04-16T00:40:32.618Z,28.90
2019-04-16T00:43:05.202Z,28.90
2019-04-16T00:45:37.655Z,29.10
2019-04-16T00:48:10.182Z,29.30
2019-04-16T00:50:42.567Z,29.20
2019-04-16T00:53:14.972Z,29.40
2019-04-16T00:55:47.570Z,29.60
2019-04-16T00:58:20.376Z,29.80
2019-04-16T01:00:53.148Z,30.00
2019-04-16T01:03:25.439Z,30.30
2019-04-16T01:05:57.938Z,30.40
2019-04-16T01:08:30.218Z,30.40
2019-04-16T01:11:02.770Z,30.70
2019-04-16T01:13:35.218Z,30.70
2019-04-16T01:16:07.902Z,30.40
2019-04-16T01:18:40.124Z,30.20
2019-04-16T01:21:14.138Z,30.40
2019-04-16T01:23:48.366Z,30.60
2019-04-16T01:26:19.783Z,31.10
2019-04-16T01:28:53.432Z,31.30
2019-04-16T01:31:27.853Z,30.90
2019-04-16T01:34:01.775Z,30.90
2019-04-16T01:36:35.742Z,31.00
2019-04-16T01:39:17.324Z,31.30
2019-04-16T01:41:44.060Z,31.30
2019-04-16T01:44:16.378Z,31.60
2019-04-16T01:46:49.568Z,31.80
2019-04-16T01:49:21.872Z,31.60
2019-04-16T01:51:54.520Z,31.60
2019-04-16T01:54:26.922Z,31.80
2019-04-16T01:57:00.885Z,31.90
2019-04-16T01:59:35.888Z,32.00
2019-04-16T02:02:07.517Z,32.10
2019-04-16T02:04:40.105Z,31.60
2019-04-16T02:07:12.703Z,32.30
2019-04-16T02:09:45.163Z,32.80
2019-04-16T02:12:17.890Z,33.10
2019-04-16T02:14:51.002Z,33.40
2019-04-16T02:17:27.043Z,32.70
2019-04-16T02:20:01.485Z,33.10
2019-04-16T02:22:32.768Z,33.50
2019-04-16T02:25:06.207Z,33.80
2019-04-16T02:27:38.447Z,33.70
2019-04-16T02:30:11.175Z,34.00
2019-04-16T02:32:43.613Z,34.10
2019-04-16T02:35:16.518Z,33.80
2019-04-16T02:37:48.904Z,34.00
2019-04-16T02:40:21.443Z,34.20
2019-04-16T02:42:54.365Z,34.40
2019-04-16T02:45:26.772Z,34.70
2019-04-16T02:47:59.323Z,34.40
2019-04-16T02:50:32.913Z,34.70
2019-04-16T02:53:07.805Z,34.70
2019-04-16T02:55:43.909Z,34.50
2019-04-16T02:58:16.614Z,34.10
2019-04-16T03:00:50.819Z,34.50
2019-04-16T03:03:25.654Z,34.50
2019-04-16T03:06:00.898Z,34.40
2019-04-16T03:08:33.413Z,34.50
2019-04-16T03:11:06.972Z,33.90
2019-04-16T03:13:39.735Z,34.10
2019-04-16T03:16:14.574Z,34.30
2019-04-16T03:18:48.365Z,34.30
2019-04-16T03:21:20.964Z,34.00
2019-04-16T03:23:53.349Z,34.10
2019-04-16T03:26:26.099Z,34.60
2019-04-16T03:28:59.504Z,34.70
2019-04-16T03:31:32.532Z,34.50
2019-04-16T03:34:05.020Z,35.10
2019-04-16T03:36:37.713Z,35.30
2019-04-16T03:39:13.216Z,35.80
2019-04-16T03:41:44.045Z,35.40
2019-04-16T03:44:16.559Z,35.60
2019-04-16T03:46:49.358Z,35.30
2019-04-16T03:49:24.476Z,35.90
2019-04-16T03:51:55.435Z,36.20
2019-04-16T03:54:27.981Z,36.20
2019-04-16T03:57:02.104Z,36.70
2019-04-16T03:59:34.310Z,36.90
2019-04-16T04:02:07.162Z,37.10
2019-04-16T04:04:39.372Z,37.30
2019-04-16T04:07:13.271Z,37.20
2019-04-16T04:09:45.750Z,37.20
2019-04-16T04:12:18.323Z,36.60
2019-04-16T04:14:51.320Z,36.40
2019-04-16T04:17:24.687Z,36.50
2019-04-16T04:19:57.202Z,36.40
2019-04-16T04:22:30.399Z,36.20
2019-04-16T04:25:04.392Z,36.60
2019-04-16T04:27:36.693Z,36.90
2019-04-16T04:30:10.158Z,36.70
2019-04-16T04:32:42.477Z,37.60
2019-04-16T04:35:20.115Z,36.60
2019-04-16T04:37:49.029Z,36.60
2019-04-16T04:40:21.659Z,37.50
2019-04-16T04:42:54.262Z,38.00
2019-04-16T04:45:26.567Z,37.50
2019-04-16T04:47:59.947Z,37.50
2019-04-16T04:50:35.282Z,37.80
2019-04-16T04:53:06.981Z,38.30
2019-04-16T04:55:39.211Z,38.70
2019-04-16T04:58:11.628Z,39.00
2019-04-16T05:00:44.070Z,38.80
2019-04-16T05:03:17.658Z,38.20
2019-04-16T05:05:53.313Z,38.40
2019-04-16T05:08:25.432Z,38.60
2019-04-16T05:10:59.946Z,39.40
2019-04-16T05:13:31.483Z,39.70
2019-04-16T05:16:06.876Z,39.60
2019-04-16T05:18:38.304Z,39.70
2019-04-16T05:21:11.914Z,39.90
2019-04-16T05:23:44.676Z,40.50
2019-04-16T05:26:17.249Z,40.40
2019-04-16T05:28:49.702Z,39.20
2019-04-16T05:31:25.629Z,39.60
2019-04-16T05:34:00.481Z,39.70
2019-04-16T05:36:29.865Z,39.00
2019-04-16T05:39:03.782Z,39.60
2019-04-16T05:41:36.127Z,39.30
2019-04-16T05:44:08.444Z,39.30
2019-04-16T05:46:46.300Z,39.20
2019-04-16T05:49:15.839Z,39.50
2019-04-16T05:51:47.982Z,39.00
2019-04-16T05:54:21.598Z,38.60
2019-04-16T05:56:56.733Z,38.70
2019-04-16T05:59:33.553Z,38.60
2019-04-16T06:02:05.035Z,39.30
2019-04-16T06:04:37.362Z,39.60
2019-04-16T06:07:10.115Z,39.30
2019-04-16T06:09:44.506Z,38.90
2019-04-16T06:12:16.480Z,38.70
2019-04-16T06:14:51.477Z,39.40
2019-04-16T06:17:29.111Z,40.00
2019-04-16T06:20:01.675Z,40.00
2019-04-16T06:22:35.502Z,40.60
2019-04-16T06:25:10.850Z,40.90
2019-04-16T06:27:44.355Z,40.80
2019-04-16T06:30:18.342Z,40.80
2019-04-16T06:32:52.595Z,39.70
2019-04-16T06:35:26.615Z,39.50
2019-04-16T06:38:00.855Z,39.70
2019-04-16T06:40:34.460Z,39.30
2019-04-16T06:43:08.027Z,39.90
2019-04-16T06:45:41.518Z,41.00
2019-04-16T06:48:15.424Z,41.70
2019-04-16T06:50:49.641Z,40.80
2019-04-16T06:53:24.588Z,41.20
2019-04-16T06:55:59.012Z,40.80
2019-04-16T06:58:49.859Z,40.90
2019-04-16T07:01:08.195Z,41.30
2019-04-16T07:03:41.843Z,41.10
2019-04-16T07:06:16.275Z,40.90
2019-04-16T07:08:50.719Z,40.90
2019-04-16T07:11:24.923Z,41.20
2019-04-16T07:13:57.579Z,41.40
2019-04-16T07:16:30.075Z,41.10
2019-04-16T07:19:02.457Z,41.20
2019-04-16T07:21:35.175Z,41.30
2019-04-16T07:24:07.571Z,41.10
2019-04-16T07:26:40.518Z,39.80
2019-04-16T07:29:15.017Z,40.30
2019-04-16T07:31:51.937Z,40.40
2019-04-16T07:34:24.212Z,41.30
2019-04-16T07:37:00.730Z,41.50
2019-04-16T07:39:36.996Z,41.60
2019-04-16T07:42:11.134Z,41.80
2019-04-16T07:44:43.214Z,42.00
2019-04-16T07:47:19.715Z,40.80
2019-04-16T07:49:52.273Z,39.90
2019-04-16T07:52:26.120Z,39.70
2019-04-16T07:55:00.133Z,39.70
2019-04-16T07:57:32.996Z,39.70
2019-04-16T08:00:09.498Z,40.30
2019-04-16T08:02:40.695Z,41.00
2019-04-16T08:05:13.467Z,41.70
2019-04-16T08:07:45.806Z,41.70
2019-04-16T08:10:18.717Z,41.40
2019-04-16T08:12:52.986Z,41.20
2019-04-16T08:15:25.832Z,41.40
2019-04-16T08:17:58.536Z,41.50
2019-04-16T08:20:31.096Z,41.00
2019-04-16T08:23:04.711Z,41.00
2019-04-16T08:25:37.137Z,41.00
2019-04-16T08:28:09.411Z,40.50
2019-04-16T08:30:41.756Z,40.20
2019-04-16T08:33:14.073Z,39.80
2019-04-16T08:35:47.208Z,40.60
2019-04-16T08:38:19.585Z,41.00
2019-04-16T08:40:53.548Z,40.40
2019-04-16T08:43:26.659Z,40.50
2019-04-16T08:46:00.013Z,40.70
2019-04-16T08:48:32.332Z,40.00
2019-04-16T08:51:05.965Z,39.80
2019-04-16T08:53:38.386Z,39.90
2019-04-16T08:56:11.221Z,40.50
2019-04-16T08:58:43.891Z,41.00
2019-04-16T09:01:18.806Z,40.80
2019-04-16T09:03:51.670Z,40.70
2019-04-16T09:06:24.064Z,40.50
2019-04-16T09:09:11.125Z,40.00
2019-04-16T09:11:35.461Z,39.40
2019-04-16T09:14:08.767Z,39.30
2019-04-16T09:16:43.631Z,39.90
2019-04-16T09:19:17.209Z,40.40
2019-04-16T09:21:49.715Z,40.10
2019-04-16T09:24:23.297Z,39.30
2019-04-16T09:26:57.312Z,39.20
2019-04-16T09:29:30.878Z,39.50
2019-04-16T09:32:05.216Z,39.30
2019-04-16T09:34:39.564Z,39.20
2019-04-16T09:37:14.545Z,39.30
2019-04-16T09:39:48.351Z,39.80
2019-04-16T09:42:21.099Z,39.60
2019-04-16T09:44:53.712Z,39.80
2019-04-16T09:47:28.945Z,39.50
2019-04-16T09:50:00.338Z,39.30
2019-04-16T09:52:34.163Z,39.00
2019-04-16T09:55:07.484Z,38.90
2019-04-16T09:57:40.197Z,38.90
2019-04-16T10:00:17.094Z,39.00
2019-04-16T10:02:49.391Z,38.60
2019-04-16T10:05:21.881Z,38.40
2019-04-16T10:07:56.877Z,38.40
2019-04-16T10:10:29.069Z,38.00
2019-04-16T10:13:03.224Z,38.20
2019-04-16T10:15:35.860Z,38.30
2019-04-16T10:18:08.344Z,37.90
2019-04-16T10:20:40.978Z,38.00
2019-04-16T10:23:14.694Z,38.10
2019-04-16T10:25:47.164Z,37.80
2019-04-16T10:28:22.056Z,37.70
2019-04-16T10:30:55.088Z,37.90
2019-04-16T10:33:27.586Z,37.70
2019-04-16T10:36:01.165Z,37.70
2019-04-16T10:38:36.469Z,37.60
2019-04-16T10:41:11.052Z,37.30
2019-04-16T10:43:45.307Z,37.30
2019-04-16T10:46:19.083Z,37.30
2019-04-16T10:48:55.658Z,37.10
2019-04-16T10:51:29.567Z,37.00
2019-04-16T10:54:03.703Z,36.90
2019-04-16T10:56:37.288Z,36.90
2019-04-16T10:59:11.238Z,36.90
2019-04-16T11:01:45.151Z,36.80
2019-04-16T11:04:19.029Z,36.80
2019-04-16T11:06:53.172Z,36.70
2019-04-16T11:09:25.903Z,36.70
2019-04-16T11:11:58.576Z,36.60
2019-04-16T11:14:31.265Z,36.60
2019-04-16T11:17:04.015Z,36.60
2019-04-16T11:19:37.150Z,36.50
2019-04-16T11:22:09.740Z,36.50
2019-04-16T11:24:42.410Z,36.50
2019-04-16T11:27:15.204Z,36.40
2019-04-16T11:29:47.980Z,36.40
2019-04-16T11:32:21.960Z,36.20
2019-04-16T11:34:54.551Z,36.20
2019-04-16T11:37:27.298Z,36.00
2019-04-16T11:39:59.659Z,36.00
2019-04-16T11:42:32.368Z,36.00
2019-04-16T11:45:05.619Z,35.90
2019-04-16T11:47:38.185Z,35.80
2019-04-16T11:50:10.585Z,35.80
2019-04-16T11:52:43.113Z,35.90
2019-04-16T11:55:15.697Z,36.00
2019-04-16T11:57:48.610Z,36.00
2019-04-16T12:00:22.856Z,36.00
2019-04-16T12:02:56.576Z,35.90
2019-04-16T12:05:30.772Z,35.90
2019-04-16T12:08:04.504Z,36.00
2019-04-16T12:10:37.947Z,35.90
2019-04-16T12:13:12.463Z,35.90
2019-04-16T12:15:46.354Z,35.80
2019-04-16T12:18:20.028Z,35.70
2019-04-16T12:20:53.743Z,35.70
2019-04-16T12:23:28.517Z,35.60
2019-04-16T12:26:02.286Z,35.40
2019-04-16T12:28:35.910Z,34.90
2019-04-16T12:31:10.037Z,34.90
2019-04-16T12:33:44.264Z,34.80
2019-04-16T12:36:19.377Z,34.80
2019-04-16T12:38:53.181Z,34.80
2019-04-16T12:41:26.751Z,34.80
2019-04-16T12:44:00.601Z,34.70
2019-04-16T12:46:34.442Z,34.80
2019-04-16T12:49:08.877Z,34.70
2019-04-16T12:51:42.450Z,34.60
2019-04-16T12:54:16.645Z,34.50
2019-04-16T12:56:50.645Z,34.40
2019-04-16T12:59:24.356Z,34.40
2019-04-16T13:01:57.971Z,34.20
2019-04-16T13:04:31.730Z,34.00
2019-04-16T13:07:05.762Z,34.00
2019-04-16T13:09:39.269Z,33.90
2019-04-16T13:12:13.401Z,33.80
2019-04-16T13:15:00.012Z,33.80
2019-04-16T13:17:21.932Z,33.90
2019-04-16T13:19:55.598Z,33.80
2019-04-16T13:22:30.975Z,33.80
2019-04-16T13:25:05.190Z,33.80
2019-04-16T13:27:39.311Z,33.90
2019-04-16T13:30:13.394Z,34.00
2019-04-16T13:32:46.192Z,33.90
2019-04-16T13:35:18.788Z,33.90
2019-04-16T13:37:51.332Z,33.80
2019-04-16T13:40:24.069Z,33.90
2019-04-16T13:42:57.183Z,33.90
2019-04-16T13:45:30.829Z,34.00
2019-04-16T13:48:15.422Z,34.00
2019-04-16T13:50:40.949Z,34.00
2019-04-16T13:53:15.833Z,33.90
2019-04-16T13:55:50.243Z,33.80
2019-04-16T13:58:24.161Z,33.50
2019-04-16T14:00:59.096Z,33.50
2019-04-16T14:03:31.912Z,33.70
2019-04-16T14:06:09.383Z,33.70
2019-04-16T14:08:38.103Z,33.60
2019-04-16T14:11:10.727Z,33.60
2019-04-16T14:13:45.002Z,33.70
2019-04-16T14:16:17.855Z,33.60
2019-04-16T14:18:50.235Z,33.40
2019-04-16T14:21:23.253Z,33.30
2019-04-16T14:23:55.658Z,33.20
2019-04-16T14:26:28.689Z,33.20
2019-04-16T14:29:05.566Z,33.30
2019-04-16T14:31:35.600Z,33.40
2019-04-16T14:34:09.990Z,33.20
2019-04-16T14:36:42.843Z,33.10
2019-04-16T14:39:17.010Z,33.10
2019-04-16T14:41:50.360Z,33.20
2019-04-16T14:44:24.159Z,33.30
2019-04-16T14:47:00.059Z,33.30
2019-04-16T14:49:30.668Z,33.30
2019-04-16T14:52:03.668Z,33.30
2019-04-16T14:54:37.666Z,33.30
2019-04-16T14:57:11.500Z,33.10
2019-04-16T14:59:45.176Z,32.90
2019-04-16T15:02:19.031Z,32.70
2019-04-16T15:04:52.744Z,32.70
2019-04-16T15:07:26.744Z,32.90
2019-04-16T15:10:02.494Z,32.90
2019-04-16T15:12:35.926Z,32.80
2019-04-16T15:15:12.133Z,32.70
2019-04-16T15:17:45.949Z,32.60
2019-04-16T15:20:19.556Z,32.70
2019-04-16T15:22:53.915Z,32.80
2019-04-16T15:25:27.720Z,32.80
2019-04-16T15:28:01.485Z,32.80
2019-04-16T15:30:35.744Z,32.90
2019-04-16T15:33:10.687Z,32.90
2019-04-16T15:35:46.795Z,32.90
2019-04-16T15:38:19.492Z,32.90
2019-04-16T15:40:53.265Z,32.80
2019-04-16T15:43:27.072Z,32.80
2019-04-16T15:46:06.731Z,32.70
2019-04-16T15:48:36.673Z,32.80
2019-04-16T15:51:14.858Z,32.80
2019-04-16T15:53:47.759Z,32.70
2019-04-16T15:56:22.728Z,32.60
2019-04-16T15:58:57.432Z,32.40
2019-04-16T16:01:31.214Z,32.30
2019-04-16T16:04:04.666Z,32.30
2019-04-16T16:06:38.877Z,32.30
2019-04-16T16:09:13.112Z,32.00
2019-04-16T16:11:48.118Z,32.00
2019-04-16T16:14:21.223Z,32.20
2019-04-16T16:16:53.621Z,32.00
2019-04-16T16:19:26.113Z,31.90
2019-04-16T16:21:58.650Z,32.00
2019-04-16T16:24:31.254Z,32.00
2019-04-16T16:27:03.685Z,32.10
2019-04-16T16:29:36.337Z,32.10
2019-04-16T16:32:08.785Z,32.10
2019-04-16T16:34:41.867Z,32.00
2019-04-16T16:37:14.148Z,32.10
2019-04-16T16:39:46.688Z,32.00
2019-04-16T16:42:19.191Z,32.00
2019-04-16T16:44:51.746Z,32.10
2019-04-16T16:47:25.732Z,31.70
2019-04-16T16:49:58.600Z,31.50
2019-04-16T16:52:32.265Z,31.80
2019-04-16T16:55:06.262Z,31.50
2019-04-16T16:57:39.646Z,31.40
2019-04-16T17:00:14.056Z,31.60
2019-04-16T17:02:47.966Z,31.60
2019-04-16T17:05:22.396Z,31.70
2019-04-16T17:07:55.205Z,31.60
2019-04-16T17:10:27.825Z,31.60
2019-04-16T17:13:00.185Z,31.60
2019-04-16T17:15:32.598Z,31.60
2019-04-16T17:18:05.516Z,31.50
2019-04-16T17:20:41.308Z,31.50
2019-04-16T17:23:16.465Z,31.50
2019-04-16T17:25:47.749Z,31.50
2019-04-16T17:28:20.386Z,31.50
2019-04-16T17:30:53.483Z,31.50
2019-04-16T17:33:25.977Z,31.40
2019-04-16T17:35:58.864Z,31.30
2019-04-16T17:38:33.849Z,30.80
2019-04-16T17:41:06.497Z,31.10
2019-04-16T17:43:40.136Z,31.30
2019-04-16T17:46:14.065Z,31.30
2019-04-16T17:48:47.599Z,31.30
2019-04-16T17:51:21.605Z,31.30
2019-04-16T17:53:55.351Z,31.30
2019-04-16T17:56:29.280Z,31.20
2019-04-16T17:59:02.847Z,31.10
2019-04-16T18:01:36.690Z,31.00
2019-04-16T18:04:11.601Z,31.00
2019-04-16T18:06:45.753Z,31.00
2019-04-16T18:09:19.730Z,30.90
2019-04-16T18:11:53.593Z,30.70
2019-04-16T18:14:27.568Z,30.70
2019-04-16T18:17:01.795Z,30.70
2019-04-16T18:19:35.646Z,30.70
2019-04-16T18:22:09.221Z,30.70
2019-04-16T18:24:42.916Z,30.40
2019-04-16T18:27:16.699Z,30.60
2019-04-16T18:29:51.144Z,30.70
2019-04-16T18:32:27.748Z,30.70
2019-04-16T18:35:00.269Z,30.70
2019-04-16T18:37:33.979Z,30.70
2019-04-16T18:40:09.247Z,30.70
2019-04-16T18:42:43.142Z,30.70
2019-04-16T18:45:17.377Z,30.50
2019-04-16T18:48:02.764Z,30.40
2019-04-16T18:50:28.103Z,30.50
2019-04-16T18:52:59.679Z,30.40
2019-04-16T18:55:32.371Z,30.40
2019-04-16T18:58:05.504Z,30.40
2019-04-16T19:00:38.904Z,30.40
2019-04-16T19:03:14.611Z,30.40
2019-04-16T19:05:45.087Z,30.40
2019-04-16T19:08:18.377Z,30.30
2019-04-16T19:10:50.968Z,30.10
2019-04-16T19:13:23.301Z,30.20
2019-04-16T19:15:55.777Z,30.30
2019-04-16T19:18:28.169Z,30.20
2019-04-16T19:21:00.731Z,30.20
2019-04-16T19:23:33.238Z,30.00
2019-04-16T19:26:06.101Z,30.10
2019-04-16T19:28:39.622Z,30.00
2019-04-16T19:31:12.510Z,30.00
2019-04-16T19:33:45.248Z,30.10
2019-04-16T19:36:19.775Z,30.10
2019-04-16T19:38:51.617Z,30.20
2019-04-16T19:41:24.560Z,29.80
2019-04-16T19:43:57.209Z,30.00
2019-04-16T19:46:29.948Z,30.10
2019-04-16T19:49:02.792Z,30.10
2019-04-16T19:51:38.079Z,30.10
2019-04-16T19:54:09.473Z,30.10
2019-04-16T19:56:41.899Z,30.10
2019-04-16T19:59:14.456Z,29.70
2019-04-16T20:01:47.121Z,29.60
2019-04-16T20:04:19.996Z,29.50
2019-04-16T20:06:52.676Z,29.80
2019-04-16T20:09:25.298Z,29.90
2019-04-16T20:11:58.151Z,30.00
2019-04-16T20:14:35.359Z,29.60
2019-04-16T20:17:04.670Z,29.50
2019-04-16T20:19:38.679Z,29.50
2019-04-16T20:22:11.304Z,29.40
2019-04-16T20:24:43.770Z,29.50
2019-04-16T20:27:19.404Z,29.70
2019-04-16T20:29:50.899Z,29.70
2019-04-16T20:32:23.625Z,29.70
2019-04-16T20:34:55.894Z,29.60
2019-04-16T20:37:28.314Z,29.70
2019-04-16T20:40:01.283Z,29.70
2019-04-16T20:42:34.334Z,29.40
2019-04-16T20:45:07.938Z,29.20
2019-04-16T20:47:40.319Z,29.20
2019-04-16T20:50:13.499Z,29.10
2019-04-16T20:52:46.075Z,29.30
2019-04-16T20:55:18.505Z,29.50
2019-04-16T20:57:50.920Z,29.50
2019-04-16T21:00:24.703Z,29.40
2019-04-16T21:02:57.347Z,29.30
2019-04-16T21:05:35.271Z,29.20
2019-04-16T21:08:04.046Z,29.30
2019-04-16T21:10:36.413Z,29.30
2019-04-16T21:13:08.948Z,29.30
2019-04-16T21:15:41.221Z,29.30
2019-04-16T21:18:13.815Z,29.20
2019-04-16T21:20:50.810Z,29.20
2019-04-16T21:23:20.077Z,29.20
2019-04-16T21:25:52.701Z,29.30
2019-04-16T21:28:26.466Z,29.00
2019-04-16T21:31:00.451Z,29.10
2019-04-16T21:33:34.151Z,29.20
2019-04-16T21:36:08.125Z,29.20
2019-04-16T21:38:42.316Z,29.00
2019-04-16T21:41:15.900Z,28.90
2019-04-16T21:43:48.286Z,29.00
2019-04-16T21:46:21.208Z,28.90
2019-04-16T21:48:56.039Z,28.60
2019-04-16T21:51:27.718Z,28.40
2019-04-16T21:54:00.650Z,28.50
2019-04-16T21:56:33.293Z,28.80
2019-04-16T21:59:06.338Z,28.90
2019-04-16T22:01:40.327Z,28.90
2019-04-16T22:04:14.694Z,28.90
2019-04-16T22:06:49.078Z,28.80
2019-04-16T22:09:21.444Z,28.80
2019-04-16T22:11:54.371Z,28.50
2019-04-16T22:14:26.797Z,28.40
2019-04-16T22:17:03.287Z,28.40
2019-04-16T22:19:33.707Z,28.70
2019-04-16T22:22:06.264Z,28.80
2019-04-16T22:24:38.406Z,28.80
2019-04-16T22:27:10.852Z,28.80
2019-04-16T22:29:47.320Z,28.90
2019-04-16T22:32:17.500Z,28.90
2019-04-16T22:34:50.530Z,28.90
2019-04-16T22:37:23.328Z,28.90
2019-04-16T22:39:57.333Z,28.70
2019-04-16T22:42:30.876Z,28.80
2019-04-16T22:45:05.595Z,28.80
2019-04-16T22:47:39.284Z,28.90
2019-04-16T22:50:17.022Z,28.90
2019-04-16T22:52:46.202Z,28.90
2019-04-16T22:55:18.602Z,28.80
2019-04-16T22:57:50.979Z,28.80
2019-04-16T23:00:25.059Z,28.70
2019-04-16T23:02:58.556Z,28.40
2019-04-16T23:05:31.991Z,28.30
2019-04-16T23:08:04.786Z,28.20
2019-04-16T23:10:37.303Z,28.50
2019-04-16T23:13:09.638Z,28.60
2019-04-16T23:15:43.710Z,28.60
2019-04-16T23:18:17.653Z,28.70
2019-04-16T23:20:50.110Z,28.40
2019-04-16T23:23:22.648Z,28.50
2019-04-16T23:25:58.980Z,28.70
2019-04-16T23:28:29.085Z,28.80
2019-04-16T23:31:01.401Z,28.90
2019-04-16T23:33:33.815Z,28.90
2019-04-16T23:36:06.510Z,28.90
2019-04-16T23:38:38.948Z,28.90
2019-04-16T23:41:15.481Z,29.00
2019-04-16T23:43:47.589Z,29.10
2019-04-16T23:46:22.817Z,28.80
2019-04-16T23:48:56.636Z,28.80
2019-04-16T23:51:30.460Z,29.00
2019-04-16T23:54:04.232Z,29.00
2019-04-16T23:56:37.955Z,29.20
2019-04-16T23:59:11.664Z,29.40
